Time;durP1;ratioP1;P1;durP2;ratioP2;P2;SDS_P1;SDS_P2;PMS_P1;PMS_P2;Temp;Humidity;BMP_temperature;BMP_pressure;BME280_temperature;BME280_humidity;BME280_pressure;Samples;Min_cycle;Max_cycle;Signal;HPM_P1;HPM_P2
2024/02/19 00:02:10;;;;;;;23.42;4.47;;;11.60;99.90;;;;;;5109149;28;20066;-80
2024/02/19 00:04:35;;;;;;;30.90;4.20;;;11.50;99.90;;;;;;5100348;28;20479;-80
2024/02/19 00:07:01;;;;;;;25.63;4.20;;;11.60;99.90;;;;;;5095750;28;20031;-80
2024/02/19 00:09:30;;;;;;;27.38;3.70;;;11.50;99.90;;;;;;5104125;28;20468;-80
2024/02/19 00:11:55;;;;;;;16.45;2.70;;;11.40;99.90;;;;;;5091252;28;20652;-80
2024/02/19 00:14:21;;;;;;;36.90;3.78;;;11.50;99.90;;;;;;5097341;28;20039;-80
2024/02/19 00:16:47;;;;;;;26.73;3.95;;;11.50;99.90;;;;;;5106707;28;20035;-80
2024/02/19 00:19:13;;;;;;;29.95;3.42;;;11.50;99.90;;;;;;5089294;28;20105;-80
2024/02/19 00:21:39;;;;;;;24.70;2.60;;;11.40;99.90;;;;;;5092257;28;20050;-80
2024/02/19 00:24:05;;;;;;;15.15;2.20;;;11.40;99.90;;;;;;5114270;27;20035;-80
2024/02/19 00:26:30;;;;;;;14.57;2.78;;;11.40;99.90;;;;;;5091196;28;20103;-79
2024/02/19 00:28:56;;;;;;;13.60;2.25;;;11.40;99.90;;;;;;5094323;28;20570;-80
2024/02/19 00:31:21;;;;;;;10.25;1.65;;;11.30;99.90;;;;;;5098283;28;20508;-80
2024/02/19 00:33:47;;;;;;;9.23;1.52;;;11.30;99.90;;;;;;5091130;28;20035;-80
2024/02/19 00:36:13;;;;;;;7.55;1.95;;;11.30;99.90;;;;;;5094241;28;20107;-80
2024/02/19 00:38:38;;;;;;;14.95;2.25;;;11.30;99.90;;;;;;5089969;28;20047;-80
2024/02/19 00:41:04;;;;;;;17.10;2.00;;;11.30;99.90;;;;;;5088708;28;20063;-79
2024/02/19 00:43:30;;;;;;;5.55;1.60;;;11.30;99.90;;;;;;5088514;28;20499;-80
2024/02/19 00:45:57;;;;;;;9.20;1.75;;;11.20;99.90;;;;;;5101851;28;20027;-80
2024/02/19 00:48:22;;;;;;;8.32;2.03;;;11.20;99.90;;;;;;5109521;28;20028;-80
2024/02/19 00:50:48;;;;;;;5.20;1.98;;;11.20;99.90;;;;;;5094985;28;20070;-80
2024/02/19 00:53:14;;;;;;;2.78;0.85;;;11.20;99.90;;;;;;5089755;28;20050;-80
2024/02/19 00:55:39;;;;;;;7.55;1.33;;;11.30;99.90;;;;;;5090044;28;20115;-79
2024/02/19 00:58:05;;;;;;;4.78;0.95;;;11.30;99.90;;;;;;5089973;28;20054;-80
2024/02/19 01:00:31;;;;;;;7.18;1.40;;;11.30;99.90;;;;;;5089856;28;20032;-80
2024/02/19 01:02:58;;;;;;;5.13;1.85;;;11.40;99.90;;;;;;5089706;28;20090;-80
2024/02/19 01:05:25;;;;;;;7.03;1.38;;;11.40;99.80;;;;;;5089921;28;20047;-80
2024/02/19 01:07:51;;;;;;;12.00;1.40;;;11.40;99.80;;;;;;5095896;28;20036;-80
2024/02/19 01:10:17;;;;;;;13.25;1.60;;;11.40;99.80;;;;;;5114067;27;20076;-80
2024/02/19 01:12:43;;;;;;;11.75;1.85;;;11.40;99.70;;;;;;5115104;27;20027;-80
2024/02/19 01:15:11;;;;;;;8.45;1.63;;;11.40;99.70;;;;;;5104179;27;20475;-80
2024/02/19 01:17:37;;;;;;;5.25;1.40;;;11.40;99.70;;;;;;5090282;28;20036;-80
2024/02/19 01:20:05;;;;;;;5.15;1.50;;;11.40;99.60;;;;;;5088851;28;20380;-80
2024/02/19 01:22:32;;;;;;;3.35;0.73;;;11.40;99.70;;;;;;5099360;27;20027;-80
2024/02/19 01:24:58;;;;;;;5.82;1.25;;;11.40;99.70;;;;;;5115364;27;20478;-80
2024/02/19 01:27:24;;;;;;;8.90;2.53;;;11.40;99.70;;;;;;5088949;28;20028;-80
2024/02/19 01:29:50;;;;;;;12.38;1.45;;;11.50;99.70;;;;;;5090885;28;20040;-80
2024/02/19 01:32:19;;;;;;;10.35;1.48;;;11.50;99.70;;;;;;5089667;28;20024;-79
2024/02/19 01:34:45;;;;;;;6.57;0.95;;;11.40;99.60;;;;;;5094928;28;20046;-81
2024/02/19 01:37:10;;;;;;;11.43;1.20;;;11.40;99.60;;;;;;5089936;28;20032;-75
2024/02/19 01:39:36;;;;;;;5.07;1.38;;;11.40;99.70;;;;;;5095286;28;20032;-79
2024/02/19 01:42:03;;;;;;;8.65;1.50;;;11.40;99.70;;;;;;5092027;28;20028;-80
2024/02/19 01:44:29;;;;;;;15.13;1.80;;;11.50;99.80;;;;;;5096779;28;20043;-80
2024/02/19 01:46:55;;;;;;;8.07;1.17;;;11.40;99.60;;;;;;5092033;28;20137;-79
2024/02/19 01:49:21;;;;;;;12.63;1.23;;;11.50;99.60;;;;;;5096337;28;20118;-80
2024/02/19 01:51:48;;;;;;;11.73;1.52;;;11.50;99.60;;;;;;5094572;28;20066;-80
2024/02/19 01:54:14;;;;;;;6.47;1.35;;;11.50;99.50;;;;;;5105220;28;20027;-80
2024/02/19 01:56:41;;;;;;;5.45;1.13;;;11.50;99.50;;;;;;5106912;28;20101;-80
2024/02/19 01:59:09;;;;;;;6.15;1.25;;;11.50;99.40;;;;;;5089362;28;20032;-80
2024/02/19 02:01:37;;;;;;;8.77;1.80;;;11.60;99.50;;;;;;5100781;28;20098;-81
2024/02/19 02:04:08;;;;;;;13.23;1.90;;;11.60;99.50;;;;;;5087738;28;20111;-80
2024/02/19 02:06:34;;;;;;;9.63;1.80;;;11.60;99.50;;;;;;5101981;28;20035;-80
2024/02/19 02:09:00;;;;;;;7.97;1.70;;;11.50;99.50;;;;;;5087027;28;20038;-80
2024/02/19 02:11:26;;;;;;;10.38;1.85;;;11.50;99.60;;;;;;5089480;28;20044;-80
2024/02/19 02:13:52;;;;;;;9.57;1.90;;;11.50;99.50;;;;;;5100061;28;20028;-80
2024/02/19 02:16:30;;;;;;;10.90;1.55;;;11.40;99.60;;;;;;5094819;28;20034;-80
2024/02/19 02:18:56;;;;;;;9.82;1.83;;;11.40;99.80;;;;;;5100007;28;20467;-80
2024/02/19 02:21:22;;;;;;;10.95;1.60;;;11.40;99.90;;;;;;5099677;27;20027;-80
2024/02/19 02:23:48;;;;;;;9.00;1.55;;;11.40;99.90;;;;;;5097325;28;20032;-80
2024/02/19 02:26:14;;;;;;;8.45;1.20;;;11.30;99.90;;;;;;5115834;27;20088;-79
2024/02/19 02:28:42;;;;;;;4.70;0.93;;;11.30;99.90;;;;;;5108021;28;20060;-80
2024/02/19 02:31:07;;;;;;;4.07;1.48;;;11.30;99.90;;;;;;5107346;28;20031;-79
2024/02/19 02:33:34;;;;;;;3.97;1.23;;;11.30;99.90;;;;;;5092993;28;20494;-79
2024/02/19 02:36:00;;;;;;;4.68;1.30;;;11.30;99.90;;;;;;5095304;28;20139;-79
2024/02/19 02:38:26;;;;;;;9.43;2.03;;;11.30;99.90;;;;;;5108715;27;20036;-79
2024/02/19 02:40:53;;;;;;;5.28;1.08;;;11.20;99.90;;;;;;5101480;27;20073;-79
2024/02/19 02:43:19;;;;;;;13.40;1.73;;;11.30;99.90;;;;;;5103168;28;20035;-79
2024/02/19 02:45:45;;;;;;;5.75;2.00;;;11.30;99.90;;;;;;5100525;28;20433;-79
2024/02/19 02:48:10;;;;;;;7.35;1.42;;;11.40;99.90;;;;;;5097578;28;20031;-79
2024/02/19 02:50:36;;;;;;;9.43;1.60;;;11.30;99.90;;;;;;5097943;28;20076;-80
2024/02/19 02:53:02;;;;;;;10.02;1.98;;;11.30;99.90;;;;;;5092658;28;20457;-79
2024/02/19 02:55:30;;;;;;;12.02;1.67;;;11.30;99.90;;;;;;5113160;27;20019;-79
2024/02/19 02:57:56;;;;;;;15.13;1.73;;;11.40;99.90;;;;;;5111318;27;20044;-79
2024/02/19 03:00:22;;;;;;;4.22;1.42;;;11.40;99.90;;;;;;5091227;28;20036;-79
2024/02/19 03:02:47;;;;;;;5.50;1.50;;;11.40;99.90;;;;;;5091183;28;20066;-79
2024/02/19 03:05:13;;;;;;;12.13;1.60;;;11.40;99.90;;;;;;5093665;28;20032;-79
2024/02/19 03:07:39;;;;;;;10.65;1.50;;;11.40;99.90;;;;;;5102357;28;20066;-80
2024/02/19 03:10:05;;;;;;;4.07;1.15;;;11.50;99.90;;;;;;5102816;28;20036;-80
2024/02/19 03:12:33;;;;;;;3.38;0.95;;;11.50;99.90;;;;;;5104512;28;20722;-80
2024/02/19 03:14:59;;;;;;;2.75;0.60;;;11.50;99.90;;;;;;5098664;28;20028;-79
2024/02/19 03:17:24;;;;;;;3.42;0.70;;;11.40;99.90;;;;;;5094400;28;20093;-79
2024/02/19 03:19:50;;;;;;;7.72;1.38;;;11.50;99.90;;;;;;5118812;27;20019;-79
2024/02/19 03:22:16;;;;;;;3.33;0.70;;;11.50;99.90;;;;;;5093262;27;20039;-79
2024/02/19 03:24:41;;;;;;;6.85;0.80;;;11.50;99.90;;;;;;5096201;28;20039;-79
2024/02/19 03:27:07;;;;;;;8.40;1.30;;;11.60;99.90;;;;;;5118530;27;20114;-79
2024/02/19 03:29:33;;;;;;;9.02;1.77;;;11.70;99.90;;;;;;5116381;27;20591;-79
2024/02/19 03:31:58;;;;;;;13.70;1.55;;;11.60;99.80;;;;;;5095598;27;20028;-79
2024/02/19 03:34:24;;;;;;;13.27;1.75;;;11.60;99.70;;;;;;5092487;28;20039;-79
2024/02/19 03:36:50;;;;;;;5.25;0.93;;;11.70;99.70;;;;;;5095627;27;20890;-80
2024/02/19 03:39:17;;;;;;;6.93;1.70;;;11.60;99.70;;;;;;5101449;28;20040;-79
2024/02/19 03:41:43;;;;;;;3.10;0.75;;;11.60;99.80;;;;;;5095217;28;20034;-79
2024/02/19 03:44:08;;;;;;;5.40;0.85;;;11.70;99.80;;;;;;5101680;28;20130;-79
2024/02/19 03:46:34;;;;;;;9.95;1.27;;;11.60;99.70;;;;;;5098701;28;20097;-79
2024/02/19 03:49:00;;;;;;;6.65;1.27;;;11.60;99.70;;;;;;5095810;28;20529;-79
2024/02/19 03:51:26;;;;;;;8.10;1.15;;;11.60;99.70;;;;;;5094248;28;20052;-79
2024/02/19 03:53:52;;;;;;;9.63;1.42;;;11.60;99.70;;;;;;5090589;28;20105;-79
2024/02/19 03:56:17;;;;;;;10.20;1.88;;;11.60;99.70;;;;;;5090256;28;20028;-79
2024/02/19 03:58:43;;;;;;;9.80;1.30;;;11.60;99.70;;;;;;5095819;28;20085;-79
2024/02/19 04:01:09;;;;;;;3.45;1.23;;;11.60;99.70;;;;;;5091245;28;20077;-79
2024/02/19 04:03:34;;;;;;;11.93;1.45;;;11.60;99.70;;;;;;5098332;28;20043;-79
2024/02/19 04:06:00;;;;;;;14.82;3.08;;;11.60;99.70;;;;;;5091450;28;20028;-79
2024/02/19 04:08:26;;;;;;;10.68;1.30;;;11.60;99.80;;;;;;5094809;28;20027;-79
2024/02/19 04:10:51;;;;;;;9.00;1.27;;;11.60;99.70;;;;;;5103527;28;20035;-79
2024/02/19 04:13:17;;;;;;;1.00;0.70;;;11.70;99.70;;;;;;5099308;28;20062;-79
2024/02/19 04:15:43;;;;;;;0.30;0.30;;;11.70;99.70;;;;;;5094901;28;20024;-79
2024/02/19 04:18:09;;;;;;;7.40;0.90;;;11.60;99.70;;;;;;5094725;28;20390;-79
2024/02/19 04:20:35;;;;;;;3.47;0.88;;;11.60;99.80;;;;;;5104013;28;20070;-79
2024/02/19 04:23:00;;;;;;;2.97;0.57;;;11.50;99.90;;;;;;5093592;28;20055;-79
2024/02/19 04:25:26;;;;;;;12.75;1.00;;;11.50;99.90;;;;;;5091540;28;20035;-79
2024/02/19 04:27:52;;;;;;;4.15;0.90;;;11.50;99.90;;;;;;5101479;27;20467;-79
2024/02/19 04:30:18;;;;;;;7.82;1.63;;;11.40;99.90;;;;;;5118614;27;20152;-79
2024/02/19 04:32:44;;;;;;;0.32;0.32;;;11.40;99.90;;;;;;5101411;28;20373;-79
2024/02/19 04:35:09;;;;;;;3.10;1.15;;;11.40;99.90;;;;;;5093497;28;20433;-79
2024/02/19 04:37:35;;;;;;;7.03;1.85;;;11.40;99.90;;;;;;5100231;28;20036;-79
2024/02/19 04:40:02;;;;;;;17.95;2.15;;;11.30;99.90;;;;;;5101412;28;20035;-79
2024/02/19 04:42:28;;;;;;;1.48;0.52;;;11.30;99.90;;;;;;5098960;28;20036;-79
2024/02/19 04:44:54;;;;;;;6.45;1.25;;;11.20;99.90;;;;;;5089659;28;20032;-79
2024/02/19 04:47:19;;;;;;;13.68;2.08;;;11.20;99.90;;;;;;5103127;28;20028;-79
2024/02/19 04:49:46;;;;;;;7.22;2.00;;;11.20;99.90;;;;;;5099238;28;20040;-79
2024/02/19 04:52:12;;;;;;;2.63;0.98;;;11.20;99.90;;;;;;5088625;28;20105;-79
2024/02/19 04:54:37;;;;;;;15.43;2.67;;;11.10;99.90;;;;;;5095844;28;20024;-80
2024/02/19 04:57:04;;;;;;;10.95;2.80;;;11.10;99.90;;;;;;5090464;28;20467;-79
2024/02/19 04:59:30;;;;;;;3.03;1.85;;;11.10;99.90;;;;;;5098406;28;20487;-79
2024/02/19 05:01:56;;;;;;;11.88;3.08;;;11.10;99.90;;;;;;5089267;28;20036;-79
2024/02/19 05:04:23;;;;;;;13.07;2.10;;;11.00;99.90;;;;;;5102062;28;20108;-79
2024/02/19 05:06:49;;;;;;;7.20;1.80;;;11.00;99.90;;;;;;5088618;28;20038;-79
2024/02/19 05:09:15;;;;;;;20.58;2.70;;;11.00;99.90;;;;;;5099002;28;20032;-79
2024/02/19 05:11:40;;;;;;;15.07;2.63;;;11.00;99.90;;;;;;5099923;28;20023;-79
2024/02/19 05:14:06;;;;;;;8.88;2.45;;;10.90;99.90;;;;;;5098587;28;20467;-79
2024/02/19 05:16:32;;;;;;;12.93;2.70;;;10.90;99.90;;;;;;5093532;28;20103;-79
2024/02/19 05:18:59;;;;;;;16.77;2.47;;;10.90;99.90;;;;;;5088664;28;20522;-79
2024/02/19 05:21:25;;;;;;;12.20;2.13;;;10.90;99.90;;;;;;5095467;28;20114;-79
2024/02/19 05:23:51;;;;;;;14.52;2.75;;;10.90;99.90;;;;;;5100147;28;20111;-79
2024/02/19 05:26:26;;;;;;;7.85;1.90;;;10.90;99.90;;;;;;5093865;27;20020;-79
2024/02/19 05:28:53;;;;;;;17.77;3.35;;;10.80;99.90;;;;;;5095520;27;20077;-80
2024/02/19 05:31:34;;;;;;;5.35;2.10;;;10.90;99.90;;;;;;5100811;27;20143;-79
2024/02/19 05:34:02;;;;;;;16.40;2.67;;;10.80;99.90;;;;;;5101019;28;20047;-79
2024/02/19 05:36:28;;;;;;;19.50;2.75;;;10.90;99.90;;;;;;5096210;28;20032;-79
2024/02/19 05:38:54;;;;;;;11.10;2.80;;;10.80;99.90;;;;;;5099954;28;20054;-78
2024/02/19 05:41:19;;;;;;;13.93;2.03;;;10.80;99.90;;;;;;5103994;28;20020;-80
2024/02/19 05:43:48;;;;;;;12.45;2.85;;;10.90;99.90;;;;;;5096286;28;20097;-79
2024/02/19 05:46:17;;;;;;;8.95;3.08;;;10.80;99.90;;;;;;5096147;28;20020;-79
2024/02/19 05:48:43;;;;;;;9.80;1.92;;;10.80;99.90;;;;;;5095070;28;20035;-79
2024/02/19 05:51:10;;;;;;;12.05;2.00;;;10.90;99.90;;;;;;5095749;28;20119;-79
2024/02/19 05:53:36;;;;;;;16.83;2.60;;;10.90;99.90;;;;;;5094112;28;20041;-79
2024/02/19 05:56:03;;;;;;;14.70;2.05;;;10.80;99.90;;;;;;5095275;28;20025;-79
2024/02/19 05:58:29;;;;;;;19.98;2.70;;;10.90;99.90;;;;;;5101483;28;20036;-79
2024/02/19 06:00:55;;;;;;;17.65;2.70;;;10.90;99.90;;;;;;5089015;28;20043;-80
2024/02/19 06:03:21;;;;;;;9.13;1.98;;;10.90;99.90;;;;;;5096557;28;20482;-79
2024/02/19 06:05:47;;;;;;;22.80;3.85;;;10.90;99.90;;;;;;5105996;28;20489;-79
2024/02/19 06:08:13;;;;;;;15.40;2.47;;;10.80;99.90;;;;;;5100209;28;20020;-79
2024/02/19 06:10:38;;;;;;;5.18;1.98;;;10.90;99.90;;;;;;5100282;28;20046;-79
2024/02/19 06:13:04;;;;;;;10.20;1.80;;;10.90;99.90;;;;;;5089420;28;20487;-78
2024/02/19 06:15:30;;;;;;;10.90;2.20;;;10.90;99.90;;;;;;5088248;28;20487;-79
2024/02/19 06:17:55;;;;;;;14.75;2.65;;;10.90;99.90;;;;;;5089070;28;20036;-79
2024/02/19 06:20:21;;;;;;;17.35;2.60;;;11.00;99.90;;;;;;5101250;28;20479;-78
2024/02/19 06:22:47;;;;;;;12.90;2.25;;;10.90;99.90;;;;;;5108741;28;20050;-79
2024/02/19 06:25:12;;;;;;;11.27;1.88;;;10.90;99.90;;;;;;5092923;28;20059;-79
2024/02/19 06:27:38;;;;;;;11.98;3.35;;;11.00;99.90;;;;;;5113830;27;20038;-79
2024/02/19 06:30:04;;;;;;;5.45;1.48;;;11.00;99.90;;;;;;5093452;27;20111;-79
2024/02/19 06:32:30;;;;;;;23.05;2.70;;;11.00;99.90;;;;;;5089311;28;20020;-79
2024/02/19 06:34:59;;;;;;;10.77;2.45;;;11.00;99.90;;;;;;5101342;28;20110;-79
2024/02/19 06:37:25;;;;;;;3.40;1.58;;;11.00;99.90;;;;;;5100553;28;20119;-79
2024/02/19 06:39:50;;;;;;;13.52;1.83;;;10.90;99.90;;;;;;5088446;28;20040;-79
2024/02/19 06:42:18;;;;;;;4.25;2.25;;;11.00;99.90;;;;;;5090037;28;20039;-79
2024/02/19 06:44:43;;;;;;;12.40;2.47;;;11.00;99.90;;;;;;5087356;28;20073;-79
2024/02/19 06:47:11;;;;;;;19.13;2.40;;;11.00;99.90;;;;;;5089022;28;20032;-79
2024/02/19 06:49:37;;;;;;;4.20;1.27;;;11.00;99.90;;;;;;5101134;28;20042;-79
2024/02/19 06:52:03;;;;;;;14.10;1.85;;;11.00;99.90;;;;;;5087126;28;20493;-79
2024/02/19 06:54:28;;;;;;;9.85;2.00;;;11.10;99.90;;;;;;5086886;28;21276;-79
2024/02/19 06:56:54;;;;;;;28.65;3.20;;;11.10;99.90;;;;;;5097758;28;20562;-78
2024/02/19 06:59:19;;;;;;;17.60;2.60;;;11.10;99.90;;;;;;5100723;28;20123;-78
2024/02/19 07:01:45;;;;;;;14.85;1.80;;;11.10;99.90;;;;;;5092594;28;20024;-80
2024/02/19 07:04:13;;;;;;;11.13;2.45;;;11.20;99.90;;;;;;5096557;28;20051;-80
2024/02/19 07:06:39;;;;;;;10.10;2.40;;;11.20;99.90;;;;;;5094791;28;20751;-79
2024/02/19 07:09:05;;;;;;;5.90;1.85;;;11.20;99.90;;;;;;5093743;28;20031;-79
2024/02/19 07:11:31;;;;;;;14.25;2.28;;;11.30;99.90;;;;;;5097579;28;20028;-80
2024/02/19 07:13:56;;;;;;;12.00;2.53;;;11.30;99.90;;;;;;5095102;28;20458;-78
2024/02/19 07:16:22;;;;;;;5.10;1.80;;;11.20;99.90;;;;;;5092843;28;20107;-78
2024/02/19 07:18:49;;;;;;;16.13;3.58;;;11.30;99.90;;;;;;5088696;28;20051;-78
2024/02/19 07:21:17;;;;;;;7.15;2.42;;;11.30;99.90;;;;;;5093552;28;20050;-79
2024/02/19 07:23:43;;;;;;;3.78;1.65;;;11.30;99.90;;;;;;5092163;28;21391;-78
2024/02/19 07:26:08;;;;;;;10.70;1.95;;;11.30;99.90;;;;;;5098233;27;20020;-79
2024/02/19 07:28:34;;;;;;;10.35;2.90;;;11.30;99.90;;;;;;5111651;27;20053;-79
2024/02/19 07:31:02;;;;;;;12.60;2.17;;;11.30;99.90;;;;;;5097345;27;20111;-79
2024/02/19 07:33:28;;;;;;;3.38;1.90;;;11.30;99.90;;;;;;5092017;28;20032;-79
2024/02/19 07:35:53;;;;;;;11.18;2.80;;;11.30;99.90;;;;;;5107559;28;20034;-80
2024/02/19 07:38:22;;;;;;;5.38;1.85;;;11.30;99.90;;;;;;5100450;28;20042;-78
2024/02/19 07:40:47;;;;;;;13.55;3.05;;;11.20;99.90;;;;;;5090939;28;20063;-79
2024/02/19 07:43:13;;;;;;;31.17;3.08;;;11.30;99.90;;;;;;5095687;28;20055;-79
2024/02/19 07:45:39;;;;;;;7.70;2.28;;;11.20;99.90;;;;;;5103841;28;20501;-80
2024/02/19 07:48:07;;;;;;;7.22;2.17;;;11.30;99.90;;;;;;5091510;28;20032;-79
2024/02/19 07:50:35;;;;;;;12.52;2.58;;;11.20;99.90;;;;;;5091864;28;20048;-79
2024/02/19 07:53:01;;;;;;;8.40;2.58;;;11.20;99.90;;;;;;5103004;28;20039;-79
2024/02/19 07:55:27;;;;;;;5.72;2.55;;;11.20;99.90;;;;;;5092031;28;20031;-79
2024/02/19 07:57:52;;;;;;;10.05;3.38;;;11.20;99.90;;;;;;5093825;28;20103;-79
2024/02/19 08:00:19;;;;;;;11.50;2.35;;;11.30;99.90;;;;;;5100270;28;20077;-78
2024/02/19 08:02:45;;;;;;;12.90;2.55;;;11.30;99.90;;;;;;5103956;28;20042;-79
2024/02/19 08:05:10;;;;;;;11.63;2.92;;;11.30;99.90;;;;;;5094658;28;20039;-80
2024/02/19 08:07:36;;;;;;;11.85;2.88;;;11.30;99.90;;;;;;5110983;28;20035;-80
2024/02/19 08:10:02;;;;;;;2.78;1.20;;;11.30;99.90;;;;;;5092170;28;21222;-80
2024/02/19 08:12:27;;;;;;;11.55;3.38;;;11.30;99.90;;;;;;5104353;28;20191;-79
2024/02/19 08:14:53;;;;;;;5.22;1.65;;;11.30;99.90;;;;;;5102491;28;20031;-81
2024/02/19 08:17:19;;;;;;;12.68;2.50;;;11.30;99.90;;;;;;5101199;28;20410;-81
2024/02/19 08:19:44;;;;;;;8.15;2.20;;;11.40;99.90;;;;;;5106651;28;20047;-80
2024/02/19 08:22:10;;;;;;;14.48;2.92;;;11.40;99.90;;;;;;5109005;28;20031;-80
2024/02/19 08:24:37;;;;;;;10.23;2.67;;;11.40;99.90;;;;;;5105065;28;20019;-80
2024/02/19 08:27:02;;;;;;;8.85;2.88;;;11.40;99.90;;;;;;5111789;27;20023;-80
2024/02/19 08:29:29;;;;;;;14.23;2.58;;;11.40;99.90;;;;;;5099881;27;20039;-75
2024/02/19 08:31:55;;;;;;;7.90;1.27;;;11.40;99.90;;;;;;5097900;28;20071;-74
2024/02/19 08:34:22;;;;;;;7.32;1.90;;;11.40;99.90;;;;;;5092193;28;20059;-78
2024/02/19 08:36:47;;;;;;;6.10;1.30;;;11.50;99.90;;;;;;5090245;28;20081;-84
2024/02/19 08:39:13;;;;;;;8.32;2.60;;;11.50;99.90;;;;;;5091556;28;20044;-79
2024/02/19 08:41:39;;;;;;;13.32;3.28;;;11.50;99.90;;;;;;5097952;28;20068;-83
2024/02/19 08:44:05;;;;;;;12.18;2.35;;;11.50;99.90;;;;;;5098378;28;20156;-80
2024/02/19 08:46:30;;;;;;;8.73;1.58;;;11.60;99.90;;;;;;5096397;28;20066;-80
2024/02/19 08:48:56;;;;;;;6.13;1.13;;;11.60;99.90;;;;;;5100192;28;20040;-80
2024/02/19 08:51:22;;;;;;;5.18;2.63;;;11.60;99.90;;;;;;5101470;28;20060;-81
2024/02/19 08:53:48;;;;;;;5.53;2.42;;;11.60;99.90;;;;;;5098750;28;20621;-81
2024/02/19 08:56:14;;;;;;;9.85;2.35;;;11.60;99.90;;;;;;5101180;28;20051;-80
2024/02/19 08:58:41;;;;;;;4.68;1.67;;;11.60;99.90;;;;;;5092991;28;20040;-80
2024/02/19 09:01:10;;;;;;;12.23;2.60;;;11.60;99.90;;;;;;5090021;28;20032;-80
2024/02/19 09:03:39;;;;;;;7.93;2.53;;;11.60;99.90;;;;;;5091689;28;20068;-80
2024/02/19 09:06:06;;;;;;;8.93;2.55;;;11.60;99.90;;;;;;5097767;28;20094;-80
2024/02/19 09:08:32;;;;;;;7.55;2.40;;;11.60;99.90;;;;;;5094801;28;20198;-80
2024/02/19 09:10:58;;;;;;;19.40;2.65;;;11.60;99.90;;;;;;5088398;28;20430;-81
2024/02/19 09:13:24;;;;;;;5.43;1.83;;;11.60;99.90;;;;;;5090460;28;20028;-81
2024/02/19 09:15:49;;;;;;;8.70;2.03;;;11.60;99.90;;;;;;5089147;28;20070;-81
2024/02/19 09:18:15;;;;;;;9.57;2.40;;;11.60;99.90;;;;;;5095562;28;20055;-81
2024/02/19 09:20:41;;;;;;;10.82;3.05;;;11.60;99.90;;;;;;5096793;28;20057;-80
2024/02/19 09:23:06;;;;;;;21.85;4.07;;;11.60;99.90;;;;;;5092722;28;20118;-81
2024/02/19 09:25:32;;;;;;;12.05;2.47;;;11.60;99.90;;;;;;5101165;28;20030;-80
2024/02/19 09:27:58;;;;;;;9.38;2.67;;;11.60;99.90;;;;;;5108111;27;20061;-76
2024/02/19 09:30:24;;;;;;;9.93;2.95;;;11.70;99.90;;;;;;5104390;27;20078;-79
2024/02/19 09:32:49;;;;;;;22.35;3.00;;;11.60;99.90;;;;;;5098104;28;20032;-79
2024/02/19 09:35:18;;;;;;;7.30;2.15;;;11.60;99.90;;;;;;5092433;28;20113;-79
2024/02/19 09:37:44;;;;;;;7.47;2.33;;;11.70;99.90;;;;;;5089854;28;20039;-79
2024/02/19 09:40:12;;;;;;;5.30;2.22;;;11.70;99.90;;;;;;5092614;28;20382;-80
2024/02/19 09:42:43;;;;;;;7.88;1.65;;;11.70;99.90;;;;;;5095823;28;20032;-80
2024/02/19 09:45:09;;;;;;;5.72;2.20;;;11.80;99.90;;;;;;5093972;28;20039;-82
2024/02/19 09:47:42;;;;;;;12.20;3.20;;;11.80;99.90;;;;;;5087390;28;20036;-79
2024/02/19 09:50:09;;;;;;;12.00;3.03;;;11.80;99.90;;;;;;5090984;28;20032;-80
2024/02/19 09:52:35;;;;;;;15.63;3.08;;;11.70;99.90;;;;;;5096846;28;20462;-82
2024/02/19 09:55:01;;;;;;;10.85;3.30;;;11.70;99.90;;;;;;5099820;28;20056;-81
2024/02/19 09:57:28;;;;;;;16.60;3.47;;;11.80;99.90;;;;;;5096505;28;20034;-82
2024/02/19 09:59:54;;;;;;;11.45;3.22;;;11.80;99.90;;;;;;5099783;28;20040;-81
2024/02/19 10:02:19;;;;;;;9.38;1.98;;;11.80;99.90;;;;;;5093992;28;20020;-82
2024/02/19 10:04:46;;;;;;;16.63;2.83;;;11.80;99.90;;;;;;5100269;28;20502;-82
2024/02/19 10:07:17;;;;;;;14.60;3.13;;;11.80;99.90;;;;;;5097774;28;20031;-82
2024/02/19 10:09:43;;;;;;;2.10;1.75;;;11.80;99.90;;;;;;5088239;28;20040;-81
2024/02/19 10:12:11;;;;;;;10.25;3.65;;;11.90;99.90;;;;;;5096346;28;20042;-82
2024/02/19 10:14:37;;;;;;;6.28;2.22;;;11.90;99.90;;;;;;5089828;28;20046;-82
2024/02/19 10:17:05;;;;;;;11.75;3.13;;;12.00;99.90;;;;;;5088455;28;20169;-77
2024/02/19 10:19:30;;;;;;;11.88;3.85;;;11.90;99.90;;;;;;5093249;28;20097;-81
2024/02/19 10:21:57;;;;;;;4.47;2.50;;;12.00;99.90;;;;;;5097372;28;20024;-82
2024/02/19 10:24:23;;;;;;;13.55;3.13;;;12.00;99.90;;;;;;5088718;28;20024;-81
2024/02/19 10:26:49;;;;;;;9.48;3.30;;;12.10;99.90;;;;;;5109324;28;20539;-81
2024/02/19 10:29:16;;;;;;;8.85;3.80;;;12.10;99.90;;;;;;5095695;28;20051;-81
2024/02/19 10:31:41;;;;;;;9.30;3.50;;;12.10;99.90;;;;;;5093198;28;20023;-81
2024/02/19 10:34:13;;;;;;;24.25;5.10;;;12.10;99.90;;;;;;5093077;28;20095;-82
2024/02/19 10:36:39;;;;;;;16.00;4.03;;;12.10;99.90;;;;;;5087374;28;20035;-81
2024/02/19 10:39:05;;;;;;;18.00;4.07;;;12.10;99.90;;;;;;5089555;28;20047;-81
2024/02/19 10:41:34;;;;;;;6.32;2.95;;;12.10;99.90;;;;;;5094527;28;20123;-81
2024/02/19 10:44:00;;;;;;;10.13;2.15;;;12.10;99.90;;;;;;5088842;28;20081;-81
2024/02/19 10:46:26;;;;;;;7.18;2.72;;;12.10;99.90;;;;;;5089204;28;20448;-81
2024/02/19 10:48:53;;;;;;;3.10;2.00;;;12.20;99.90;;;;;;5085063;28;20081;-82
2024/02/19 10:51:19;;;;;;;14.13;3.85;;;12.20;99.90;;;;;;5091365;28;20093;-82
2024/02/19 10:53:45;;;;;;;15.40;3.38;;;12.10;99.90;;;;;;5094003;28;20440;-78
2024/02/19 10:56:18;;;;;;;16.13;4.53;;;12.20;99.90;;;;;;5098869;28;20047;-80
2024/02/19 10:58:55;;;;;;;8.07;2.78;;;12.20;99.90;;;;;;5098992;28;20044;-81
2024/02/19 11:01:36;;;;;;;10.43;2.33;;;12.20;99.90;;;;;;5095874;28;20487;-83
2024/02/19 11:04:19;;;;;;;33.03;2.70;;;12.30;99.90;;;;;;5101980;28;20024;-81
2024/02/19 11:06:54;;;;;;;12.57;2.67;;;12.30;99.90;;;;;;5093428;28;20123;-80
2024/02/19 11:09:21;;;;;;;4.78;1.40;;;12.30;99.90;;;;;;5097031;28;20140;-80
2024/02/19 11:11:53;;;;;;;15.60;2.97;;;12.40;99.90;;;;;;5093053;28;20032;-78
2024/02/19 11:14:23;;;;;;;13.18;3.42;;;12.40;99.90;;;;;;5091998;28;20043;-79
2024/02/19 11:16:56;;;;;;;12.60;3.33;;;12.40;99.90;;;;;;5091031;28;20110;-78
2024/02/19 11:19:24;;;;;;;9.43;2.95;;;12.50;99.90;;;;;;5103231;28;20035;-79
2024/02/19 11:21:49;;;;;;;14.73;4.07;;;12.50;99.90;;;;;;5096580;28;20046;-79
2024/02/19 11:24:15;;;;;;;8.77;3.03;;;12.50;99.90;;;;;;5097238;28;20467;-80
2024/02/19 11:26:44;;;;;;;10.50;2.88;;;12.50;99.90;;;;;;5108690;27;20046;-80
2024/02/19 11:29:19;;;;;;;13.88;3.10;;;12.40;99.90;;;;;;5111242;27;20118;-80
2024/02/19 11:31:45;;;;;;;11.93;3.63;;;12.40;99.90;;;;;;5098405;27;20088;-79
2024/02/19 11:34:18;;;;;;;9.40;2.90;;;12.50;99.90;;;;;;5103003;28;20019;-78
2024/02/19 11:36:44;;;;;;;;;;;12.40;99.90;;;;;;5101619;28;20476;-78
2024/02/19 11:39:10;;;;;;;10.40;2.90;;;12.50;99.90;;;;;;5091127;28;20015;-76
2024/02/19 11:41:36;;;;;;;8.13;3.25;;;12.50;99.90;;;;;;5101936;28;20118;-78
2024/02/19 11:44:03;;;;;;;20.38;3.60;;;12.50;99.90;;;;;;5101274;28;20054;-79
2024/02/19 11:46:29;;;;;;;13.38;3.22;;;12.50;99.90;;;;;;5090557;28;20024;-79
2024/02/19 11:48:55;;;;;;;5.72;2.60;;;12.50;99.90;;;;;;5092661;28;20089;-79
2024/02/19 11:51:21;;;;;;;7.45;3.10;;;12.50;99.90;;;;;;5096356;28;20479;-79
2024/02/19 11:53:48;;;;;;;4.78;2.60;;;12.60;99.90;;;;;;5094214;28;20054;-79
2024/02/19 11:56:18;;;;;;;4.18;2.80;;;12.50;99.90;;;;;;5105017;28;20023;-78
2024/02/19 11:58:47;;;;;;;10.43;3.28;;;12.60;99.90;;;;;;5088732;28;20059;-79
2024/02/19 12:01:12;;;;;;;7.18;4.38;;;12.60;99.90;;;;;;5090484;28;20487;-79
2024/02/19 12:03:41;;;;;;;14.25;3.78;;;12.60;99.90;;;;;;5099174;28;20048;-79
2024/02/19 12:06:09;;;;;;;10.93;3.95;;;12.70;99.90;;;;;;5094800;28;20142;-79
2024/02/19 12:08:34;;;;;;;7.95;3.17;;;12.70;99.90;;;;;;5097126;28;20094;-79
2024/02/19 12:11:00;;;;;;;9.15;3.28;;;12.70;99.90;;;;;;5099522;28;20035;-79
2024/02/19 12:13:26;;;;;;;8.15;3.78;;;12.60;99.90;;;;;;5096206;28;20068;-79
2024/02/19 12:15:52;;;;;;;12.57;1.48;;;12.60;99.90;;;;;;5090483;28;20035;-76
2024/02/19 12:18:18;;;;;;;12.48;3.78;;;12.70;99.90;;;;;;5106154;28;20050;-81
2024/02/19 12:20:44;;;;;;;17.20;4.45;;;12.70;99.90;;;;;;5097546;28;20032;-80
2024/02/19 12:23:10;;;;;;;5.35;2.50;;;12.70;99.90;;;;;;5090923;28;20129;-80
2024/02/19 12:25:36;;;;;;;6.55;2.42;;;12.80;99.90;;;;;;5108644;28;20457;-79
2024/02/19 12:28:02;;;;;;;7.57;2.58;;;12.80;99.90;;;;;;5103839;27;20831;-79
2024/02/19 12:30:27;;;;;;;13.13;3.10;;;12.80;99.90;;;;;;5106765;27;20613;-78
2024/02/19 12:32:53;;;;;;;11.57;3.08;;;12.80;99.90;;;;;;5094166;28;20043;-78
2024/02/19 12:35:19;;;;;;;18.17;4.05;;;12.80;99.90;;;;;;5090969;28;20050;-74
2024/02/19 12:37:45;;;;;;;11.15;2.63;;;12.80;99.90;;;;;;5093475;28;20150;-76
2024/02/19 12:40:13;;;;;;;2.58;1.80;;;12.80;99.90;;;;;;5089311;28;20414;-77